sensor_id;sensor_type;location;lat;lon;timestamp;P1;durP1;ratioP1;P2;durP2;ratioP2
49366;SDS011;35245;52.026;8.540;2024-02-14T00:00:11;8.23;;;3.70;;
49366;SDS011;35245;52.026;8.540;2024-02-14T00:02:39;6.80;;;3.80;;
49366;SDS011;35245;52.026;8.540;2024-02-14T00:05:07;7.82;;;3.90;;
49366;SDS011;35245;52.026;8.540;2024-02-14T00:07:35;9.05;;;3.53;;
49366;SDS011;35245;52.026;8.540;2024-02-14T00:10:03;8.73;;;3.78;;
49366;SDS011;35245;52.026;8.540;2024-02-14T00:12:33;6.20;;;4.03;;
49366;SDS011;35245;52.026;8.540;2024-02-14T00:15:00;6.65;;;3.90;;
49366;SDS011;35245;52.026;8.540;2024-02-14T00:17:28;6.93;;;3.47;;
49366;SDS011;35245;52.026;8.540;2024-02-14T00:19:55;8.35;;;3.80;;
49366;SDS011;35245;52.026;8.540;2024-02-14T00:22:23;8.82;;;3.65;;
49366;SDS011;35245;52.026;8.540;2024-02-14T00:24:50;8.32;;;3.80;;
49366;SDS011;35245;52.026;8.540;2024-02-14T00:27:17;6.43;;;3.22;;
49366;SDS011;35245;52.026;8.540;2024-02-14T00:29:45;8.23;;;3.65;;
49366;SDS011;35245;52.026;8.540;2024-02-14T00:32:13;7.65;;;3.40;;
49366;SDS011;35245;52.026;8.540;2024-02-14T00:34:40;7.88;;;3.35;;
49366;SDS011;35245;52.026;8.540;2024-02-14T00:37:08;5.80;;;3.15;;
49366;SDS011;35245;52.026;8.540;2024-02-14T00:39:36;6.95;;;3.85;;
49366;SDS011;35245;52.026;8.540;2024-02-14T00:42:03;5.75;;;3.58;;
49366;SDS011;35245;52.026;8.540;2024-02-14T00:44:30;6.40;;;3.47;;
49366;SDS011;35245;52.026;8.540;2024-02-14T00:46:59;4.63;;;2.80;;
49366;SDS011;35245;52.026;8.540;2024-02-14T00:49:27;6.18;;;3.33;;
49366;SDS011;35245;52.026;8.540;2024-02-14T00:51:54;7.43;;;3.53;;
49366;SDS011;35245;52.026;8.540;2024-02-14T00:54:21;7.55;;;3.47;;
49366;SDS011;35245;52.026;8.540;2024-02-14T00:56:48;8.95;;;3.83;;
49366;SDS011;35245;52.026;8.540;2024-02-14T00:59:15;5.90;;;3.00;;
49366;SDS011;35245;52.026;8.540;2024-02-14T01:01:43;6.93;;;2.70;;
49366;SDS011;35245;52.026;8.540;2024-02-14T01:04:12;5.78;;;3.10;;
49366;SDS011;35245;52.026;8.540;2024-02-14T01:06:39;4.85;;;2.90;;
49366;SDS011;35245;52.026;8.540;2024-02-14T01:09:06;5.25;;;3.08;;
49366;SDS011;35245;52.026;8.540;2024-02-14T01:11:33;5.97;;;3.40;;
49366;SDS011;35245;52.026;8.540;2024-02-14T01:14:01;7.35;;;3.03;;
49366;SDS011;35245;52.026;8.540;2024-02-14T01:16:28;5.38;;;3.00;;
49366;SDS011;35245;52.026;8.540;2024-02-14T01:18:55;6.30;;;3.08;;
49366;SDS011;35245;52.026;8.540;2024-02-14T01:21:24;10.25;;;3.40;;
49366;SDS011;35245;52.026;8.540;2024-02-14T01:23:51;5.85;;;3.40;;
49366;SDS011;35245;52.026;8.540;2024-02-14T01:26:18;5.55;;;3.17;;
49366;SDS011;35245;52.026;8.540;2024-02-14T01:28:46;5.95;;;3.50;;
49366;SDS011;35245;52.026;8.540;2024-02-14T01:31:13;9.93;;;4.40;;
49366;SDS011;35245;52.026;8.540;2024-02-14T01:33:41;6.15;;;3.25;;
49366;SDS011;35245;52.026;8.540;2024-02-14T01:36:08;7.78;;;3.75;;
49366;SDS011;35245;52.026;8.540;2024-02-14T01:38:37;9.70;;;4.03;;
49366;SDS011;35245;52.026;8.540;2024-02-14T01:41:04;10.80;;;3.45;;
49366;SDS011;35245;52.026;8.540;2024-02-14T01:43:32;5.53;;;3.30;;
49366;SDS011;35245;52.026;8.540;2024-02-14T01:46:02;7.97;;;3.72;;
49366;SDS011;35245;52.026;8.540;2024-02-14T01:48:32;6.32;;;2.95;;
49366;SDS011;35245;52.026;8.540;2024-02-14T01:51:01;6.93;;;3.60;;
49366;SDS011;35245;52.026;8.540;2024-02-14T01:53:32;7.93;;;3.95;;
49366;SDS011;35245;52.026;8.540;2024-02-14T01:56:01;6.07;;;3.85;;
49366;SDS011;35245;52.026;8.540;2024-02-14T01:58:29;7.90;;;3.67;;
49366;SDS011;35245;52.026;8.540;2024-02-14T02:00:57;8.23;;;4.07;;
49366;SDS011;35245;52.026;8.540;2024-02-14T02:03:24;9.57;;;3.80;;
49366;SDS011;35245;52.026;8.540;2024-02-14T02:05:52;6.72;;;3.30;;
49366;SDS011;35245;52.026;8.540;2024-02-14T02:08:20;7.57;;;4.07;;
49366;SDS011;35245;52.026;8.540;2024-02-14T02:10:47;10.20;;;3.83;;
49366;SDS011;35245;52.026;8.540;2024-02-14T02:13:16;7.22;;;3.45;;
49366;SDS011;35245;52.026;8.540;2024-02-14T02:15:44;8.05;;;3.70;;
49366;SDS011;35245;52.026;8.540;2024-02-14T02:18:12;6.75;;;3.65;;
49366;SDS011;35245;52.026;8.540;2024-02-14T02:20:40;8.52;;;3.83;;
49366;SDS011;35245;52.026;8.540;2024-02-14T02:23:09;6.15;;;3.75;;
49366;SDS011;35245;52.026;8.540;2024-02-14T02:25:39;5.35;;;3.25;;
49366;SDS011;35245;52.026;8.540;2024-02-14T02:28:07;7.30;;;3.80;;
49366;SDS011;35245;52.026;8.540;2024-02-14T02:30:35;8.63;;;3.53;;
49366;SDS011;35245;52.026;8.540;2024-02-14T02:33:02;7.65;;;3.25;;
49366;SDS011;35245;52.026;8.540;2024-02-14T02:35:30;7.55;;;3.03;;
49366;SDS011;35245;52.026;8.540;2024-02-14T02:37:57;6.28;;;3.10;;
49366;SDS011;35245;52.026;8.540;2024-02-14T02:40:26;8.00;;;3.17;;
49366;SDS011;35245;52.026;8.540;2024-02-14T02:42:53;6.15;;;3.00;;
49366;SDS011;35245;52.026;8.540;2024-02-14T02:45:20;6.68;;;3.22;;
49366;SDS011;35245;52.026;8.540;2024-02-14T02:47:48;6.88;;;3.25;;
49366;SDS011;35245;52.026;8.540;2024-02-14T02:50:16;6.78;;;2.90;;
49366;SDS011;35245;52.026;8.540;2024-02-14T02:52:44;7.63;;;3.10;;
49366;SDS011;35245;52.026;8.540;2024-02-14T02:55:12;5.97;;;2.80;;
49366;SDS011;35245;52.026;8.540;2024-02-14T02:57:41;4.93;;;2.40;;
49366;SDS011;35245;52.026;8.540;2024-02-14T03:00:10;9.32;;;3.28;;
49366;SDS011;35245;52.026;8.540;2024-02-14T03:02:39;5.78;;;2.53;;
49366;SDS011;35245;52.026;8.540;2024-02-14T03:05:09;6.78;;;2.63;;
49366;SDS011;35245;52.026;8.540;2024-02-14T03:07:43;4.32;;;2.47;;
49366;SDS011;35245;52.026;8.540;2024-02-14T03:10:12;7.93;;;2.53;;
49366;SDS011;35245;52.026;8.540;2024-02-14T03:12:45;6.68;;;2.67;;
49366;SDS011;35245;52.026;8.540;2024-02-14T03:15:13;4.95;;;2.65;;
49366;SDS011;35245;52.026;8.540;2024-02-14T03:17:41;6.90;;;2.65;;
49366;SDS011;35245;52.026;8.540;2024-02-14T03:20:08;5.50;;;2.70;;
49366;SDS011;35245;52.026;8.540;2024-02-14T03:22:38;4.78;;;2.58;;
49366;SDS011;35245;52.026;8.540;2024-02-14T03:27:38;8.80;;;2.78;;
49366;SDS011;35245;52.026;8.540;2024-02-14T03:30:08;5.22;;;2.92;;
49366;SDS011;35245;52.026;8.540;2024-02-14T03:32:37;4.90;;;2.40;;
49366;SDS011;35245;52.026;8.540;2024-02-14T03:35:04;5.10;;;2.55;;
49366;SDS011;35245;52.026;8.540;2024-02-14T03:37:31;5.03;;;2.90;;
49366;SDS011;35245;52.026;8.540;2024-02-14T03:39:59;6.28;;;2.47;;
49366;SDS011;35245;52.026;8.540;2024-02-14T03:42:28;5.03;;;2.47;;
49366;SDS011;35245;52.026;8.540;2024-02-14T03:44:55;5.13;;;2.63;;
49366;SDS011;35245;52.026;8.540;2024-02-14T03:47:29;4.22;;;2.25;;
49366;SDS011;35245;52.026;8.540;2024-02-14T03:49:56;4.63;;;2.67;;
49366;SDS011;35245;52.026;8.540;2024-02-14T03:52:24;10.98;;;2.53;;
49366;SDS011;35245;52.026;8.540;2024-02-14T03:54:51;7.22;;;2.60;;
49366;SDS011;35245;52.026;8.540;2024-02-14T03:57:19;7.38;;;2.83;;
49366;SDS011;35245;52.026;8.540;2024-02-14T03:59:46;4.78;;;2.10;;
49366;SDS011;35245;52.026;8.540;2024-02-14T04:02:13;3.05;;;2.20;;
49366;SDS011;35245;52.026;8.540;2024-02-14T04:04:42;6.90;;;2.65;;
49366;SDS011;35245;52.026;8.540;2024-02-14T04:07:11;4.85;;;2.38;;
49366;SDS011;35245;52.026;8.540;2024-02-14T04:09:39;4.15;;;2.13;;
49366;SDS011;35245;52.026;8.540;2024-02-14T04:12:06;5.13;;;1.85;;
49366;SDS011;35245;52.026;8.540;2024-02-14T04:14:35;5.05;;;2.10;;
49366;SDS011;35245;52.026;8.540;2024-02-14T04:17:03;5.18;;;2.53;;
49366;SDS011;35245;52.026;8.540;2024-02-14T04:19:32;3.95;;;2.15;;
49366;SDS011;35245;52.026;8.540;2024-02-14T04:22:01;4.65;;;3.08;;
49366;SDS011;35245;52.026;8.540;2024-02-14T04:24:28;7.15;;;2.67;;
49366;SDS011;35245;52.026;8.540;2024-02-14T04:26:56;7.70;;;2.67;;
49366;SDS011;35245;52.026;8.540;2024-02-14T04:29:23;5.72;;;2.65;;
49366;SDS011;35245;52.026;8.540;2024-02-14T04:31:50;4.88;;;3.00;;
49366;SDS011;35245;52.026;8.540;2024-02-14T04:34:17;4.43;;;2.55;;
49366;SDS011;35245;52.026;8.540;2024-02-14T04:36:44;5.22;;;2.90;;
49366;SDS011;35245;52.026;8.540;2024-02-14T04:39:13;6.30;;;3.05;;
49366;SDS011;35245;52.026;8.540;2024-02-14T04:41:40;6.95;;;3.50;;
49366;SDS011;35245;52.026;8.540;2024-02-14T04:44:07;5.78;;;3.22;;
49366;SDS011;35245;52.026;8.540;2024-02-14T04:46:34;5.65;;;3.10;;
49366;SDS011;35245;52.026;8.540;2024-02-14T04:49:03;5.28;;;3.28;;
49366;SDS011;35245;52.026;8.540;2024-02-14T04:51:30;5.85;;;3.15;;
49366;SDS011;35245;52.026;8.540;2024-02-14T04:53:57;6.65;;;3.15;;
49366;SDS011;35245;52.026;8.540;2024-02-14T04:56:26;5.88;;;3.38;;
49366;SDS011;35245;52.026;8.540;2024-02-14T04:58:53;4.07;;;3.15;;
49366;SDS011;35245;52.026;8.540;2024-02-14T05:01:21;7.57;;;3.08;;
49366;SDS011;35245;52.026;8.540;2024-02-14T05:03:48;4.47;;;2.97;;
49366;SDS011;35245;52.026;8.540;2024-02-14T05:06:15;8.00;;;3.30;;
49366;SDS011;35245;52.026;8.540;2024-02-14T05:08:43;6.68;;;3.60;;
49366;SDS011;35245;52.026;8.540;2024-02-14T05:11:10;7.38;;;3.58;;
49366;SDS011;35245;52.026;8.540;2024-02-14T05:13:38;5.68;;;3.53;;
49366;SDS011;35245;52.026;8.540;2024-02-14T05:16:06;7.47;;;3.45;;
49366;SDS011;35245;52.026;8.540;2024-02-14T05:18:35;6.25;;;4.22;;
49366;SDS011;35245;52.026;8.540;2024-02-14T05:21:04;6.85;;;4.45;;
49366;SDS011;35245;52.026;8.540;2024-02-14T05:23:33;7.38;;;4.68;;
49366;SDS011;35245;52.026;8.540;2024-02-14T05:26:00;9.48;;;5.30;;
49366;SDS011;35245;52.026;8.540;2024-02-14T05:28:28;8.93;;;5.25;;
49366;SDS011;35245;52.026;8.540;2024-02-14T05:30:57;9.93;;;5.63;;
49366;SDS011;35245;52.026;8.540;2024-02-14T05:33:25;11.20;;;6.30;;
49366;SDS011;35245;52.026;8.540;2024-02-14T05:35:52;13.43;;;6.85;;
49366;SDS011;35245;52.026;8.540;2024-02-14T05:38:20;19.05;;;9.90;;
49366;SDS011;35245;52.026;8.540;2024-02-14T05:40:47;11.95;;;6.90;;
49366;SDS011;35245;52.026;8.540;2024-02-14T05:43:14;13.35;;;6.85;;
49366;SDS011;35245;52.026;8.540;2024-02-14T05:45:43;14.20;;;7.78;;
49366;SDS011;35245;52.026;8.540;2024-02-14T05:48:11;11.57;;;7.45;;
49366;SDS011;35245;52.026;8.540;2024-02-14T05:50:39;16.23;;;8.20;;
49366;SDS011;35245;52.026;8.540;2024-02-14T05:53:06;14.75;;;8.15;;
49366;SDS011;35245;52.026;8.540;2024-02-14T05:55:33;13.25;;;8.18;;
49366;SDS011;35245;52.026;8.540;2024-02-14T05:58:01;13.43;;;8.00;;
49366;SDS011;35245;52.026;8.540;2024-02-14T06:00:28;14.50;;;8.90;;
49366;SDS011;35245;52.026;8.540;2024-02-14T06:02:55;12.88;;;8.13;;
49366;SDS011;35245;52.026;8.540;2024-02-14T06:05:23;12.63;;;8.27;;
49366;SDS011;35245;52.026;8.540;2024-02-14T06:07:50;14.93;;;8.95;;
49366;SDS011;35245;52.026;8.540;2024-02-14T06:10:18;14.60;;;9.13;;
49366;SDS011;35245;52.026;8.540;2024-02-14T06:12:45;17.77;;;10.55;;
49366;SDS011;35245;52.026;8.540;2024-02-14T06:15:13;16.40;;;9.63;;
49366;SDS011;35245;52.026;8.540;2024-02-14T06:17:41;16.70;;;10.35;;
49366;SDS011;35245;52.026;8.540;2024-02-14T06:20:09;18.63;;;11.10;;
49366;SDS011;35245;52.026;8.540;2024-02-14T06:22:39;22.00;;;12.25;;
49366;SDS011;35245;52.026;8.540;2024-02-14T06:25:06;21.83;;;12.93;;
49366;SDS011;35245;52.026;8.540;2024-02-14T06:27:34;18.83;;;11.82;;
49366;SDS011;35245;52.026;8.540;2024-02-14T06:30:02;20.05;;;12.43;;
49366;SDS011;35245;52.026;8.540;2024-02-14T06:32:30;24.65;;;15.55;;
49366;SDS011;35245;52.026;8.540;2024-02-14T06:34:57;23.92;;;14.77;;
49366;SDS011;35245;52.026;8.540;2024-02-14T06:37:24;20.35;;;13.10;;
49366;SDS011;35245;52.026;8.540;2024-02-14T06:39:52;22.13;;;14.23;;
49366;SDS011;35245;52.026;8.540;2024-02-14T06:42:19;21.77;;;13.55;;
49366;SDS011;35245;52.026;8.540;2024-02-14T06:44:46;23.45;;;14.23;;
49366;SDS011;35245;52.026;8.540;2024-02-14T06:47:14;19.48;;;14.02;;
49366;SDS011;35245;52.026;8.540;2024-02-14T06:49:41;21.92;;;14.98;;
49366;SDS011;35245;52.026;8.540;2024-02-14T06:52:09;23.50;;;16.20;;
49366;SDS011;35245;52.026;8.540;2024-02-14T06:54:36;21.42;;;15.70;;
49366;SDS011;35245;52.026;8.540;2024-02-14T06:57:04;26.17;;;16.42;;
49366;SDS011;35245;52.026;8.540;2024-02-14T06:59:32;25.90;;;17.92;;
49366;SDS011;35245;52.026;8.540;2024-02-14T07:02:01;26.67;;;16.70;;
49366;SDS011;35245;52.026;8.540;2024-02-14T07:04:29;25.17;;;16.67;;
49366;SDS011;35245;52.026;8.540;2024-02-14T07:06:56;24.05;;;17.17;;
49366;SDS011;35245;52.026;8.540;2024-02-14T07:09:25;28.40;;;19.13;;
49366;SDS011;35245;52.026;8.540;2024-02-14T07:11:53;28.65;;;17.83;;
49366;SDS011;35245;52.026;8.540;2024-02-14T07:14:22;30.75;;;19.77;;
49366;SDS011;35245;52.026;8.540;2024-02-14T07:16:50;26.20;;;18.02;;
49366;SDS011;35245;52.026;8.540;2024-02-14T07:19:17;26.45;;;18.42;;
49366;SDS011;35245;52.026;8.540;2024-02-14T07:21:44;23.50;;;17.52;;
49366;SDS011;35245;52.026;8.540;2024-02-14T07:24:11;23.20;;;17.23;;
49366;SDS011;35245;52.026;8.540;2024-02-14T07:26:39;28.75;;;18.92;;
49366;SDS011;35245;52.026;8.540;2024-02-14T07:29:08;24.85;;;17.90;;
49366;SDS011;35245;52.026;8.540;2024-02-14T07:31:37;23.27;;;17.15;;
49366;SDS011;35245;52.026;8.540;2024-02-14T07:34:04;21.73;;;15.27;;
49366;SDS011;35245;52.026;8.540;2024-02-14T07:36:31;24.63;;;17.38;;
49366;SDS011;35245;52.026;8.540;2024-02-14T07:38:59;23.63;;;16.80;;
49366;SDS011;35245;52.026;8.540;2024-02-14T07:41:26;20.95;;;15.10;;
49366;SDS011;35245;52.026;8.540;2024-02-14T07:43:53;20.67;;;15.77;;
49366;SDS011;35245;52.026;8.540;2024-02-14T07:46:21;22.27;;;16.65;;
49366;SDS011;35245;52.026;8.540;2024-02-14T07:48:52;21.08;;;15.20;;
49366;SDS011;35245;52.026;8.540;2024-02-14T07:51:20;18.90;;;14.27;;
49366;SDS011;35245;52.026;8.540;2024-02-14T07:53:47;19.27;;;15.40;;
49366;SDS011;35245;52.026;8.540;2024-02-14T07:56:15;22.55;;;15.35;;
49366;SDS011;35245;52.026;8.540;2024-02-14T07:58:44;19.58;;;15.77;;
49366;SDS011;35245;52.026;8.540;2024-02-14T08:01:11;19.60;;;16.15;;
49366;SDS011;35245;52.026;8.540;2024-02-14T08:03:39;20.02;;;15.10;;
49366;SDS011;35245;52.026;8.540;2024-02-14T08:06:08;20.15;;;14.30;;
49366;SDS011;35245;52.026;8.540;2024-02-14T08:08:35;20.05;;;15.20;;
49366;SDS011;35245;52.026;8.540;2024-02-14T08:11:02;19.27;;;14.55;;
49366;SDS011;35245;52.026;8.540;2024-02-14T08:13:30;21.25;;;15.07;;
49366;SDS011;35245;52.026;8.540;2024-02-14T08:15:57;18.05;;;13.68;;
49366;SDS011;35245;52.026;8.540;2024-02-14T08:18:24;18.75;;;13.55;;
49366;SDS011;35245;52.026;8.540;2024-02-14T08:20:52;18.55;;;13.55;;
49366;SDS011;35245;52.026;8.540;2024-02-14T08:23:21;18.60;;;12.52;;
49366;SDS011;35245;52.026;8.540;2024-02-14T08:25:48;17.73;;;12.88;;
49366;SDS011;35245;52.026;8.540;2024-02-14T08:28:15;21.13;;;13.73;;
49366;SDS011;35245;52.026;8.540;2024-02-14T08:30:43;16.70;;;12.60;;
49366;SDS011;35245;52.026;8.540;2024-02-14T08:33:10;17.80;;;12.07;;
49366;SDS011;35245;52.026;8.540;2024-02-14T08:35:38;18.33;;;12.68;;
49366;SDS011;35245;52.026;8.540;2024-02-14T08:38:05;18.45;;;12.90;;
49366;SDS011;35245;52.026;8.540;2024-02-14T08:40:34;16.67;;;12.38;;
49366;SDS011;35245;52.026;8.540;2024-02-14T08:43:01;16.27;;;13.50;;
49366;SDS011;35245;52.026;8.540;2024-02-14T08:45:29;15.93;;;12.40;;
49366;SDS011;35245;52.026;8.540;2024-02-14T08:47:56;15.30;;;11.95;;
49366;SDS011;35245;52.026;8.540;2024-02-14T08:50:23;17.83;;;12.40;;
49366;SDS011;35245;52.026;8.540;2024-02-14T08:52:50;15.20;;;12.30;;
49366;SDS011;35245;52.026;8.540;2024-02-14T08:55:18;18.05;;;12.02;;
49366;SDS011;35245;52.026;8.540;2024-02-14T08:57:46;14.23;;;11.90;;
49366;SDS011;35245;52.026;8.540;2024-02-14T09:00:14;15.38;;;12.35;;
49366;SDS011;35245;52.026;8.540;2024-02-14T09:02:44;14.35;;;12.05;;
49366;SDS011;35245;52.026;8.540;2024-02-14T09:05:13;15.23;;;11.75;;
49366;SDS011;35245;52.026;8.540;2024-02-14T09:07:41;16.45;;;12.35;;
49366;SDS011;35245;52.026;8.540;2024-02-14T09:10:09;15.88;;;12.93;;
49366;SDS011;35245;52.026;8.540;2024-02-14T09:12:37;14.95;;;11.05;;
49366;SDS011;35245;52.026;8.540;2024-02-14T09:15:08;15.25;;;12.35;;
49366;SDS011;35245;52.026;8.540;2024-02-14T09:17:37;15.32;;;11.07;;
49366;SDS011;35245;52.026;8.540;2024-02-14T09:20:06;13.07;;;11.18;;
49366;SDS011;35245;52.026;8.540;2024-02-14T09:22:34;14.93;;;10.88;;
49366;SDS011;35245;52.026;8.540;2024-02-14T09:25:02;13.80;;;10.98;;
49366;SDS011;35245;52.026;8.540;2024-02-14T09:27:30;15.15;;;11.50;;
49366;SDS011;35245;52.026;8.540;2024-02-14T09:30:00;16.92;;;11.25;;
49366;SDS011;35245;52.026;8.540;2024-02-14T09:32:30;14.98;;;11.32;;
49366;SDS011;35245;52.026;8.540;2024-02-14T09:34:57;13.88;;;11.13;;
49366;SDS011;35245;52.026;8.540;2024-02-14T09:37:25;13.38;;;10.73;;
49366;SDS011;35245;52.026;8.540;2024-02-14T09:39:53;14.70;;;12.25;;
49366;SDS011;35245;52.026;8.540;2024-02-14T09:42:22;15.32;;;11.85;;
49366;SDS011;35245;52.026;8.540;2024-02-14T09:45:04;14.43;;;12.13;;
49366;SDS011;35245;52.026;8.540;2024-02-14T09:47:35;15.70;;;11.82;;
49366;SDS011;35245;52.026;8.540;2024-02-14T09:50:03;17.83;;;13.05;;
49366;SDS011;35245;52.026;8.540;2024-02-14T09:52:34;17.08;;;13.32;;
49366;SDS011;35245;52.026;8.540;2024-02-14T09:55:04;18.40;;;12.93;;
49366;SDS011;35245;52.026;8.540;2024-02-14T09:57:32;20.52;;;14.30;;
49366;SDS011;35245;52.026;8.540;2024-02-14T10:00:00;20.35;;;14.40;;
49366;SDS011;35245;52.026;8.540;2024-02-14T10:02:29;20.27;;;14.27;;
49366;SDS011;35245;52.026;8.540;2024-02-14T10:04:59;21.60;;;14.55;;
49366;SDS011;35245;52.026;8.540;2024-02-14T10:07:26;20.70;;;14.63;;
49366;SDS011;35245;52.026;8.540;2024-02-14T10:09:53;20.38;;;15.35;;
49366;SDS011;35245;52.026;8.540;2024-02-14T10:12:20;22.33;;;14.48;;
49366;SDS011;35245;52.026;8.540;2024-02-14T10:14:48;20.70;;;15.07;;
49366;SDS011;35245;52.026;8.540;2024-02-14T10:17:18;21.38;;;14.80;;
49366;SDS011;35245;52.026;8.540;2024-02-14T10:19:54;24.00;;;17.02;;
49366;SDS011;35245;52.026;8.540;2024-02-14T10:22:24;22.30;;;15.43;;
49366;SDS011;35245;52.026;8.540;2024-02-14T10:24:58;19.55;;;15.55;;
49366;SDS011;35245;52.026;8.540;2024-02-14T10:27:25;19.60;;;14.88;;
49366;SDS011;35245;52.026;8.540;2024-02-14T10:29:55;19.60;;;14.10;;
49366;SDS011;35245;52.026;8.540;2024-02-14T10:32:22;18.02;;;14.23;;
49366;SDS011;35245;52.026;8.540;2024-02-14T10:34:50;20.95;;;15.20;;
49366;SDS011;35245;52.026;8.540;2024-02-14T10:37:17;20.20;;;14.38;;
49366;SDS011;35245;52.026;8.540;2024-02-14T10:39:48;17.95;;;14.48;;
49366;SDS011;35245;52.026;8.540;2024-02-14T10:42:17;17.92;;;14.40;;
49366;SDS011;35245;52.026;8.540;2024-02-14T10:44:45;22.85;;;15.95;;
49366;SDS011;35245;52.026;8.540;2024-02-14T10:47:14;21.63;;;15.23;;
49366;SDS011;35245;52.026;8.540;2024-02-14T10:49:45;17.13;;;14.32;;
49366;SDS011;35245;52.026;8.540;2024-02-14T10:52:14;17.63;;;13.95;;
49366;SDS011;35245;52.026;8.540;2024-02-14T10:54:44;17.10;;;12.68;;
49366;SDS011;35245;52.026;8.540;2024-02-14T10:57:22;15.75;;;12.48;;
49366;SDS011;35245;52.026;8.540;2024-02-14T10:59:51;14.50;;;12.40;;
49366;SDS011;35245;52.026;8.540;2024-02-14T11:02:20;14.35;;;11.73;;
49366;SDS011;35245;52.026;8.540;2024-02-14T11:04:49;15.15;;;11.90;;
49366;SDS011;35245;52.026;8.540;2024-02-14T11:07:18;14.32;;;11.80;;
49366;SDS011;35245;52.026;8.540;2024-02-14T11:09:52;14.38;;;11.25;;
49366;SDS011;35245;52.026;8.540;2024-02-14T11:12:32;15.88;;;12.02;;
49366;SDS011;35245;52.026;8.540;2024-02-14T11:15:01;17.77;;;12.25;;
49366;SDS011;35245;52.026;8.540;2024-02-14T11:17:36;20.67;;;15.27;;
49366;SDS011;35245;52.026;8.540;2024-02-14T11:20:11;19.80;;;13.02;;
49366;SDS011;35245;52.026;8.540;2024-02-14T11:22:50;16.33;;;11.80;;
49366;SDS011;35245;52.026;8.540;2024-02-14T11:25:32;20.17;;;12.10;;
49366;SDS011;35245;52.026;8.540;2024-02-14T11:28:00;15.82;;;12.82;;
49366;SDS011;35245;52.026;8.540;2024-02-14T11:30:39;13.27;;;11.15;;
49366;SDS011;35245;52.026;8.540;2024-02-14T11:33:12;16.38;;;10.90;;
49366;SDS011;35245;52.026;8.540;2024-02-14T11:35:44;14.55;;;11.43;;
49366;SDS011;35245;52.026;8.540;2024-02-14T11:38:12;14.25;;;11.07;;
49366;SDS011;35245;52.026;8.540;2024-02-14T11:40:41;14.38;;;11.27;;
49366;SDS011;35245;52.026;8.540;2024-02-14T11:43:12;15.23;;;10.95;;
49366;SDS011;35245;52.026;8.540;2024-02-14T11:48:08;13.77;;;9.73;;
49366;SDS011;35245;52.026;8.540;2024-02-14T11:50:38;14.70;;;10.57;;
49366;SDS011;35245;52.026;8.540;2024-02-14T11:53:06;14.00;;;9.80;;
49366;SDS011;35245;52.026;8.540;2024-02-14T11:55:35;17.02;;;9.98;;
49366;SDS011;35245;52.026;8.540;2024-02-14T11:58:07;16.08;;;8.00;;
49366;SDS011;35245;52.026;8.540;2024-02-14T12:00:35;12.63;;;9.23;;
49366;SDS011;35245;52.026;8.540;2024-02-14T12:03:06;10.90;;;8.48;;
49366;SDS011;35245;52.026;8.540;2024-02-14T12:05:34;11.75;;;8.65;;
49366;SDS011;35245;52.026;8.540;2024-02-14T12:08:03;13.60;;;8.38;;
49366;SDS011;35245;52.026;8.540;2024-02-14T12:10:32;9.82;;;7.45;;
49366;SDS011;35245;52.026;8.540;2024-02-14T12:13:04;11.75;;;8.18;;
49366;SDS011;35245;52.026;8.540;2024-02-14T12:15:37;9.25;;;7.28;;
49366;SDS011;35245;52.026;8.540;2024-02-14T12:18:05;10.00;;;8.40;;
49366;SDS011;35245;52.026;8.540;2024-02-14T12:20:33;10.43;;;6.68;;
49366;SDS011;35245;52.026;8.540;2024-02-14T12:23:02;9.70;;;6.60;;
49366;SDS011;35245;52.026;8.540;2024-02-14T12:25:30;9.85;;;7.00;;
49366;SDS011;35245;52.026;8.540;2024-02-14T12:27:57;9.07;;;6.82;;
49366;SDS011;35245;52.026;8.540;2024-02-14T12:30:41;8.75;;;7.20;;
49366;SDS011;35245;52.026;8.540;2024-02-14T12:33:11;7.68;;;6.28;;
49366;SDS011;35245;52.026;8.540;2024-02-14T12:35:42;8.88;;;6.25;;
49366;SDS011;35245;52.026;8.540;2024-02-14T12:38:10;9.57;;;6.10;;
49366;SDS011;35245;52.026;8.540;2024-02-14T12:40:39;11.30;;;6.35;;
49366;SDS011;35245;52.026;8.540;2024-02-14T12:43:07;7.68;;;6.07;;
49366;SDS011;35245;52.026;8.540;2024-02-14T12:45:37;9.93;;;6.82;;
49366;SDS011;35245;52.026;8.540;2024-02-14T12:48:04;7.53;;;6.13;;
49366;SDS011;35245;52.026;8.540;2024-02-14T12:50:33;11.10;;;7.18;;
49366;SDS011;35245;52.026;8.540;2024-02-14T12:53:00;9.00;;;6.93;;
49366;SDS011;35245;52.026;8.540;2024-02-14T12:55:28;8.45;;;6.65;;
49366;SDS011;35245;52.026;8.540;2024-02-14T12:57:55;9.45;;;7.00;;
49366;SDS011;35245;52.026;8.540;2024-02-14T13:00:23;9.73;;;7.13;;
49366;SDS011;35245;52.026;8.540;2024-02-14T13:02:53;9.90;;;7.65;;
49366;SDS011;35245;52.026;8.540;2024-02-14T13:05:20;9.30;;;7.82;;
49366;SDS011;35245;52.026;8.540;2024-02-14T13:07:47;11.35;;;8.27;;
49366;SDS011;35245;52.026;8.540;2024-02-14T13:10:15;11.73;;;8.77;;
49366;SDS011;35245;52.026;8.540;2024-02-14T13:12:43;9.68;;;8.10;;
49366;SDS011;35245;52.026;8.540;2024-02-14T13:15:10;12.77;;;8.60;;
49366;SDS011;35245;52.026;8.540;2024-02-14T13:17:37;10.82;;;8.55;;
49366;SDS011;35245;52.026;8.540;2024-02-14T13:20:07;12.38;;;7.75;;
49366;SDS011;35245;52.026;8.540;2024-02-14T13:22:35;10.25;;;7.57;;
49366;SDS011;35245;52.026;8.540;2024-02-14T13:25:03;10.60;;;7.88;;
49366;SDS011;35245;52.026;8.540;2024-02-14T13:27:31;11.20;;;7.57;;
49366;SDS011;35245;52.026;8.540;2024-02-14T13:29:58;11.20;;;8.45;;
49366;SDS011;35245;52.026;8.540;2024-02-14T13:32:26;11.02;;;8.38;;
49366;SDS011;35245;52.026;8.540;2024-02-14T13:34:53;10.77;;;8.32;;
49366;SDS011;35245;52.026;8.540;2024-02-14T13:37:21;16.48;;;8.85;;
49366;SDS011;35245;52.026;8.540;2024-02-14T13:39:48;10.52;;;7.80;;
49366;SDS011;35245;52.026;8.540;2024-02-14T13:42:16;14.95;;;7.57;;
49366;SDS011;35245;52.026;8.540;2024-02-14T13:44:43;12.90;;;7.35;;
49366;SDS011;35245;52.026;8.540;2024-02-14T13:47:10;10.68;;;6.85;;
49366;SDS011;35245;52.026;8.540;2024-02-14T13:49:38;11.23;;;6.97;;
49366;SDS011;35245;52.026;8.540;2024-02-14T13:52:05;15.55;;;7.10;;
49366;SDS011;35245;52.026;8.540;2024-02-14T13:54:34;10.57;;;6.72;;
49366;SDS011;35245;52.026;8.540;2024-02-14T13:57:01;10.57;;;6.53;;
49366;SDS011;35245;52.026;8.540;2024-02-14T13:59:28;11.68;;;7.32;;
49366;SDS011;35245;52.026;8.540;2024-02-14T14:01:56;9.82;;;6.78;;
49366;SDS011;35245;52.026;8.540;2024-02-14T14:04:23;7.95;;;6.10;;
49366;SDS011;35245;52.026;8.540;2024-02-14T14:06:51;10.45;;;6.60;;
49366;SDS011;35245;52.026;8.540;2024-02-14T14:09:20;7.53;;;5.60;;
49366;SDS011;35245;52.026;8.540;2024-02-14T14:11:48;10.07;;;6.00;;
49366;SDS011;35245;52.026;8.540;2024-02-14T14:14:17;12.98;;;5.85;;
49366;SDS011;35245;52.026;8.540;2024-02-14T14:16:44;11.13;;;6.75;;
49366;SDS011;35245;52.026;8.540;2024-02-14T14:19:12;10.18;;;6.90;;
49366;SDS011;35245;52.026;8.540;2024-02-14T14:21:39;13.43;;;6.93;;
49366;SDS011;35245;52.026;8.540;2024-02-14T14:24:06;8.90;;;6.20;;
49366;SDS011;35245;52.026;8.540;2024-02-14T14:26:33;8.75;;;6.20;;
49366;SDS011;35245;52.026;8.540;2024-02-14T14:29:02;10.15;;;6.18;;
49366;SDS011;35245;52.026;8.540;2024-02-14T14:31:29;10.07;;;6.35;;
49366;SDS011;35245;52.026;8.540;2024-02-14T14:33:56;10.20;;;6.63;;
49366;SDS011;35245;52.026;8.540;2024-02-14T14:36:23;9.68;;;6.30;;
49366;SDS011;35245;52.026;8.540;2024-02-14T14:38:50;10.40;;;5.88;;
49366;SDS011;35245;52.026;8.540;2024-02-14T14:41:19;10.98;;;6.72;;
49366;SDS011;35245;52.026;8.540;2024-02-14T14:43:46;8.23;;;5.93;;
49366;SDS011;35245;52.026;8.540;2024-02-14T14:46:15;11.55;;;6.63;;